ES-0157 weather

Aeródromo de Ordis
Ordis, Girona, Spain

Public forecast

Using degrees Celsius for public forecast. Weather courtesy of forecast.io.

METAR (pilot weather report)

Closest report is Girona Airport, 20.7 nm (38.3 km) SSW. Retrieved 2019/09/19 16:30 UTC (0 seconds ago):

LEGE 191630Z 22007KT 190V270 9999 VCTS SCT040CB 23/14 Q1017

TAF (pilot weather forecast)

Closest forecast is Girona Airport, 20.7 nm (38.3 km) SSW. Retrieved 2019/09/19 12:27 UTC (4 hours ago):

TAF LEGE 191100Z 1912/2012 VRB03KT 9999 FEW040 TX30/1913Z TN16/2005Z TEMPO 1912/1918 20009KT PROB40 TEMPO 1914/1920 32015KT 4000 TSRA FEW030CB